createdAt,value
2018-11-27T00:00:50.189Z,1.90
2018-11-27T00:15:52.564Z,2.35
2018-11-27T00:30:50.931Z,2.17
2018-11-27T00:45:52.808Z,2.00
2018-11-27T01:00:51.215Z,2.50
2018-11-27T01:15:52.663Z,2.90
2018-11-27T01:30:52.664Z,3.70
2018-11-27T01:45:54.004Z,4.28
2018-11-27T02:00:50.957Z,4.20
2018-11-27T02:15:52.843Z,3.85
2018-11-27T02:30:50.767Z,4.85
2018-11-27T02:45:53.212Z,4.90
2018-11-27T03:00:53.139Z,6.50
2018-11-27T03:15:51.554Z,8.08
2018-11-27T03:30:51.013Z,7.90
2018-11-27T03:45:51.354Z,8.08
2018-11-27T04:00:53.305Z,7.67
2018-11-27T04:15:52.846Z,8.53
2018-11-27T04:30:51.396Z,7.62
2018-11-27T04:45:50.681Z,7.85
2018-11-27T05:00:51.599Z,7.03
2018-11-27T05:15:52.591Z,5.20
2018-11-27T05:30:50.374Z,7.65
2018-11-27T05:45:51.311Z,11.35
2018-11-27T06:00:50.860Z,11.33
2018-11-27T06:15:50.665Z,12.20
2018-11-27T06:30:50.935Z,13.53
2018-11-27T06:45:53.040Z,14.20
2018-11-27T07:00:51.502Z,11.68
2018-11-27T07:15:54.031Z,10.23
2018-11-27T07:30:52.917Z,11.20
2018-11-27T07:45:55.183Z,11.38
2018-11-27T08:00:53.208Z,12.40
2018-11-27T08:15:51.106Z,11.20
2018-11-27T08:30:51.118Z,12.68
2018-11-27T08:45:50.380Z,10.70
2018-11-27T09:00:50.201Z,11.00
2018-11-27T09:15:51.288Z,17.12
2018-11-27T09:30:51.234Z,21.40
2018-11-27T09:45:50.746Z,22.70
2018-11-27T10:00:50.519Z,22.42
2018-11-27T10:15:50.901Z,23.22
2018-11-27T10:30:50.452Z,41.42
2018-11-27T10:45:49.790Z,43.58
2018-11-27T11:00:55.459Z,33.15
2018-11-27T11:15:50.194Z,41.73
2018-11-27T11:30:50.637Z,37.60
2018-11-27T11:45:51.991Z,27.95
2018-11-27T12:00:52.147Z,25.80
2018-11-27T12:15:51.840Z,27.35
2018-11-27T12:30:50.749Z,26.82
2018-11-27T12:45:51.195Z,26.77
2018-11-27T13:00:51.204Z,20.65
2018-11-27T13:15:51.568Z,28.95
2018-11-27T13:30:55.392Z,30.02
2018-11-27T13:45:50.732Z,31.35
2018-11-27T14:00:52.749Z,32.03
2018-11-27T14:15:51.323Z,31.07
2018-11-27T14:30:51.348Z,34.90
2018-11-27T14:45:52.606Z,43.00
2018-11-27T15:00:50.539Z,31.07
2018-11-27T15:15:50.480Z,24.30
2018-11-27T15:30:50.469Z,16.90
2018-11-27T15:45:50.840Z,19.45
2018-11-27T16:00:52.912Z,16.25
2018-11-27T16:15:52.878Z,14.50
2018-11-27T16:30:53.458Z,7.30
2018-11-27T17:00:54.141Z,7.15
2018-11-27T17:45:52.661Z,10.85
2018-11-27T18:00:51.440Z,11.38
2018-11-27T18:15:51.234Z,12.63
2018-11-27T18:30:54.346Z,12.07
2018-11-27T18:45:50.628Z,15.13
2018-11-27T19:00:51.441Z,14.80
2018-11-27T19:15:52.537Z,10.25
2018-11-27T19:30:52.741Z,9.00
2018-11-27T20:00:56.288Z,7.60
2018-11-27T20:30:55.492Z,7.50
2018-11-27T20:45:57.184Z,6.12
2018-11-27T21:30:54.296Z,7.45
2018-11-27T21:45:59.250Z,7.62
2018-11-27T22:00:53.529Z,5.83
2018-11-27T22:15:57.045Z,5.50
2018-11-27T22:30:52.839Z,4.22
2018-11-27T22:45:50.683Z,2.58
2018-11-27T23:00:52.595Z,2.35
2018-11-27T23:15:51.373Z,1.80
2018-11-27T23:30:53.224Z,2.12
2018-11-27T23:45:51.631Z,2.37
